Time;durP1;ratioP1;P1;durP2;ratioP2;P2;SDS_P1;SDS_P2;PMS_P1;PMS_P2;Temp;Humidity;BMP_temperature;BMP_pressure;BME280_temperature;BME280_humidity;BME280_pressure;Samples;Min_cycle;Max_cycle;Signal;HPM_P1;HPM_P2
2022/03/27 00:02:11;;;;;;;31.23;19.10;;;;;;;3.06;97.10;103231.31;5071007;28;20430;-46
2022/03/27 00:04:40;;;;;;;31.77;18.67;;;;;;;3.02;97.03;103235.03;5071756;28;20493;-48
2022/03/27 00:07:07;;;;;;;29.13;18.70;;;;;;;3.01;97.20;103240.41;5072360;28;20450;-47
2022/03/27 00:09:35;;;;;;;25.10;19.67;;;;;;;2.99;97.32;103243.13;5072094;28;20438;-46
2022/03/27 00:12:04;;;;;;;24.90;19.13;;;;;;;3.01;97.47;103235.13;5071735;28;20434;-44
2022/03/27 00:14:33;;;;;;;38.63;18.63;;;;;;;2.96;97.36;103243.28;5071387;28;20465;-50
2022/03/27 00:17:00;;;;;;;30.07;17.67;;;;;;;2.95;97.22;103248.66;5072012;28;20545;-47
2022/03/27 00:19:28;;;;;;;28.73;17.67;;;;;;;2.95;97.51;103246.88;5072024;28;20488;-45
2022/03/27 00:21:56;;;;;;;28.67;18.73;;;;;;;2.94;97.46;103245.19;5071803;28;20427;-48
2022/03/27 00:24:24;;;;;;;23.17;16.97;;;;;;;2.92;97.24;103241.78;5071345;28;20462;-49
2022/03/27 00:26:52;;;;;;;27.37;18.60;;;;;;;2.89;97.75;103249.88;5071846;28;20998;-45
2022/03/27 00:29:21;;;;;;;28.00;18.33;;;;;;;2.87;97.36;103251.72;5072069;28;20423;-47
2022/03/27 00:31:50;;;;;;;25.33;18.23;;;;;;;2.84;97.51;103240.53;5071725;28;20929;-44
2022/03/27 00:34:21;;;;;;;37.10;19.30;;;;;;;2.82;97.21;103245.00;5071446;28;20867;-48
2022/03/27 00:36:49;;;;;;;28.97;18.27;;;;;;;2.77;97.54;103237.38;5071772;28;20446;-46
2022/03/27 00:39:17;;;;;;;33.23;19.00;;;;;;;2.76;97.81;103241.78;5071732;28;20439;-46
2022/03/27 00:41:45;;;;;;;29.83;20.30;;;;;;;2.76;97.60;103241.78;5071555;28;20812;-45
2022/03/27 00:44:12;;;;;;;31.50;18.30;;;;;;;2.73;97.29;103244.59;5071292;28;20478;-45
2022/03/27 00:46:41;;;;;;;30.17;18.60;;;;;;;2.69;97.61;103243.06;5071724;28;20473;-46
2022/03/27 00:49:10;;;;;;;24.20;18.90;;;;;;;2.68;97.58;103237.88;5071693;28;20439;-44
2022/03/27 00:51:37;;;;;;;32.87;17.77;;;;;;;2.64;97.77;103231.94;5071513;28;20448;-46
2022/03/27 00:54:05;;;;;;;28.03;18.30;;;;;;;2.60;97.78;103234.81;5070915;28;20499;-45
2022/03/27 00:56:33;;;;;;;38.40;19.30;;;;;;;2.56;97.88;103223.59;5071622;28;20886;-45
2022/03/27 00:59:01;;;;;;;47.73;22.33;;;;;;;2.55;97.58;103221.91;5071694;28;20442;-43
2022/03/27 01:01:35;;;;;;;33.00;17.77;;;;;;;2.53;97.81;103226.41;5071330;28;20437;-45
2022/03/27 01:04:04;;;;;;;28.90;17.10;;;;;;;2.49;98.04;103231.91;5070960;28;20470;-46
2022/03/27 01:06:35;;;;;;;27.70;19.57;;;;;;;2.43;97.67;103225.19;5071244;28;20438;-45
2022/03/27 01:11:53;;;;;;;24.57;18.97;;;;;;;2.33;98.04;103231.06;5071307;28;20425;-47
2022/03/27 01:14:27;;;;;;;36.40;19.60;;;;;;;2.30;97.70;103228.59;5074718;28;20458;-45
2022/03/27 01:17:01;;;;;;;31.13;20.07;;;;;;;2.24;97.71;103213.94;5075119;28;20442;-43
2022/03/27 01:19:29;;;;;;;37.77;20.13;;;;;;;2.23;97.75;103214.91;5075484;28;20528;-44
2022/03/27 01:22:00;;;;;;;42.43;18.93;;;;;;;2.20;98.13;103210.66;5075107;28;20529;-48
2022/03/27 01:24:28;;;;;;;36.00;18.93;;;;;;;2.18;98.20;103209.06;5074591;28;20561;-45
2022/03/27 01:26:56;;;;;;;31.17;19.70;;;;;;;2.16;98.30;103208.25;5075124;28;20450;-45
2022/03/27 01:29:23;;;;;;;25.37;17.83;;;;;;;2.16;98.34;103208.25;5074989;28;20434;-47
2022/03/27 01:31:53;;;;;;;27.83;18.70;;;;;;;2.15;98.29;103210.03;5074726;28;20426;-45
2022/03/27 01:34:21;;;;;;;23.50;19.90;;;;;;;2.13;98.06;103204.00;5074551;28;20458;-43
2022/03/27 01:36:49;;;;;;;27.87;22.67;;;;;;;2.14;98.54;103218.03;5074856;28;20454;-45
2022/03/27 01:39:18;;;;;;;35.83;20.90;;;;;;;2.13;98.67;103217.19;5074928;28;20809;-45
2022/03/27 01:41:46;;;;;;;28.63;19.63;;;;;;;2.15;98.61;103217.09;5074611;28;20465;-45
2022/03/27 01:44:17;;;;;;;36.40;19.87;;;;;;;2.12;98.22;103218.09;5073541;28;20474;-46
2022/03/27 01:46:45;;;;;;;30.50;17.80;;;;;;;2.12;98.31;103219.91;5062734;28;21070;-49
2022/03/27 01:49:15;;;;;;;25.60;17.83;;;;;;;2.11;98.42;103226.94;5073329;28;20433;-44
2022/03/27 01:51:44;;;;;;;30.53;18.93;;;;;;;2.09;98.24;103215.63;5074486;28;20441;-47
2022/03/27 01:54:12;;;;;;;31.63;20.67;;;;;;;2.08;98.53;103221.00;5074106;28;20464;-43
2022/03/27 01:56:41;;;;;;;24.00;17.50;;;;;;;2.02;98.35;103214.28;5074367;28;20450;-43
2022/03/27 01:59:10;;;;;;;33.10;19.70;;;;;;;2.03;98.34;103215.13;5074687;28;20438;-46
2022/03/27 02:01:38;;;;;;;26.87;18.07;;;;;;;2.02;98.23;103213.41;5074325;28;20426;-45
2022/03/27 02:04:07;;;;;;;28.13;18.07;;;;;;;2.03;98.67;103204.59;5073780;28;21011;-46
2022/03/27 02:06:37;;;;;;;23.47;19.17;;;;;;;2.01;98.20;103188.88;5074580;28;20435;-46
2022/03/27 02:09:05;;;;;;;40.10;19.47;;;;;;;2.00;98.50;103187.16;5074436;28;20435;-45
2022/03/27 02:11:33;;;;;;;32.87;17.47;;;;;;;1.99;98.09;103187.25;5074168;28;20434;-47
2022/03/27 02:14:03;;;;;;;34.23;20.37;;;;;;;1.98;98.58;103180.28;5073871;28;20833;-45
2022/03/27 02:16:30;;;;;;;43.63;22.27;;;;;;;1.97;98.71;103184.69;5074216;28;20781;-43
2022/03/27 02:18:58;;;;;;;30.17;19.33;;;;;;;1.95;98.64;103178.69;5074226;28;20434;-43
2022/03/27 02:21:26;;;;;;;36.90;22.57;;;;;;;1.93;98.60;103171.81;5073862;28;20462;-43
2022/03/27 02:23:54;;;;;;;25.30;20.07;;;;;;;1.90;98.62;103167.56;5072774;28;20541;-46
2022/03/27 02:26:21;;;;;;;30.00;19.67;;;;;;;1.91;98.54;103171.03;5073819;28;20480;-46
2022/03/27 02:28:49;;;;;;;25.23;19.40;;;;;;;1.90;98.88;103171.97;5074051;28;20444;-46
2022/03/27 02:31:19;;;;;;;25.10;19.70;;;;;;;1.89;98.61;103186.03;5073840;28;20953;-45
2022/03/27 02:33:47;;;;;;;29.40;20.43;;;;;;;1.87;98.79;103194.03;5073328;28;20462;-47
2022/03/27 02:36:15;;;;;;;29.20;18.80;;;;;;;1.87;98.98;103201.06;5073890;28;20517;-49
2022/03/27 02:38:43;;;;;;;36.07;20.47;;;;;;;1.86;99.18;103199.34;5073860;28;20444;-44
2022/03/27 02:41:10;;;;;;;28.20;20.53;;;;;;;1.84;98.52;103209.97;5073634;28;20441;-43
2022/03/27 02:43:38;;;;;;;29.50;21.03;;;;;;;1.84;99.04;103214.38;5073451;28;20547;-46
2022/03/27 02:46:07;;;;;;;28.93;19.70;;;;;;;1.82;98.81;103218.88;5065898;28;20547;-47
2022/03/27 02:48:36;;;;;;;29.33;19.80;;;;;;;1.79;99.29;103205.88;5066420;28;20461;-47
2022/03/27 02:51:05;;;;;;;25.00;18.90;;;;;;;1.76;99.02;103206.91;5073522;28;20429;-48
2022/03/27 02:53:32;;;;;;;27.40;19.53;;;;;;;1.74;98.68;103206.13;5072930;28;20549;-47
2022/03/27 02:56:00;;;;;;;36.57;20.37;;;;;;;1.73;98.66;103204.44;5073627;28;20441;-46
2022/03/27 02:58:28;;;;;;;34.40;20.10;;;;;;;1.74;98.80;103205.25;5073274;28;21007;-45
2022/03/27 03:00:56;;;;;;;36.83;22.20;;;;;;;1.73;98.58;103207.06;5073135;28;20430;-48
2022/03/27 03:03:23;;;;;;;33.00;21.47;;;;;;;1.73;99.03;103193.91;5072620;28;20533;-46
2022/03/27 03:05:55;;;;;;;32.53;19.40;;;;;;;1.72;98.83;103191.34;5073034;28;21057;-47
2022/03/27 03:08:22;;;;;;;36.00;19.93;;;;;;;1.71;98.82;103192.25;5073244;28;20446;-45
2022/03/27 03:10:50;;;;;;;26.60;19.63;;;;;;;1.66;98.52;103198.63;5072959;28;20429;-49
2022/03/27 03:13:18;;;;;;;39.17;20.07;;;;;;;1.65;99.11;103203.94;5072615;28;20444;-47
2022/03/27 03:15:46;;;;;;;28.90;19.20;;;;;;;1.63;99.08;103204.06;5072891;28;20518;-48
2022/03/27 03:18:14;;;;;;;31.40;21.70;;;;;;;1.62;98.95;103206.75;5073083;28;20813;-47
2022/03/27 03:20:42;;;;;;;26.40;20.40;;;;;;;1.60;98.70;103191.06;5072913;28;20477;-45
2022/03/27 03:23:11;;;;;;;36.30;24.57;;;;;;;1.60;98.87;103191.06;5072575;28;20797;-44
2022/03/27 03:25:40;;;;;;;47.43;24.97;;;;;;;1.59;98.82;103181.47;5072924;28;20477;-43
2022/03/27 03:28:27;;;;;;;50.77;26.50;;;;;;;1.57;99.02;103177.22;5072898;28;20458;-44
2022/03/27 03:30:55;;;;;;;52.07;23.27;;;;;;;1.55;98.74;103185.16;5072584;28;20434;-46
2022/03/27 03:33:23;;;;;;;32.40;22.73;;;;;;;1.49;98.57;103172.34;5072399;28;20821;-45
2022/03/27 03:35:50;;;;;;;24.10;20.90;;;;;;;1.46;99.22;103172.53;5072639;28;20462;-45
2022/03/27 03:38:19;;;;;;;23.40;20.90;;;;;;;1.43;99.08;103166.56;5072468;28;20456;-45
2022/03/27 03:40:47;;;;;;;21.33;19.33;;;;;;;1.41;98.77;103173.66;5072164;28;20434;-45
2022/03/27 03:43:15;;;;;;;21.00;19.03;;;;;;;1.38;98.84;103165.94;5072076;28;20927;-46
2022/03/27 03:45:42;;;;;;;20.40;18.40;;;;;;;1.38;98.90;103179.94;5065628;28;20480;-43
2022/03/27 03:48:10;;;;;;;19.83;18.10;;;;;;;1.39;98.94;103188.66;5063899;28;20490;-46
2022/03/27 03:50:38;;;;;;;21.27;19.20;;;;;;;1.39;98.94;103191.28;5072196;28;20434;-47
2022/03/27 03:53:06;;;;;;;20.53;18.83;;;;;;;1.40;99.45;103198.28;5071744;28;20441;-44
2022/03/27 03:55:35;;;;;;;19.77;18.07;;;;;;;1.39;98.94;103200.03;5072417;28;20436;-47
2022/03/27 03:58:03;;;;;;;21.67;19.50;;;;;;;1.39;99.04;103209.69;5072322;28;20544;-45
2022/03/27 04:00:31;;;;;;;20.93;19.10;;;;;;;1.38;99.02;103205.38;5072061;28;20434;-47
2022/03/27 04:02:59;;;;;;;19.20;17.40;;;;;;;1.39;98.94;103207.06;5072194;28;20829;-46
2022/03/27 04:05:27;;;;;;;20.13;18.10;;;;;;;1.40;98.88;103214.91;5071827;28;20548;-45
2022/03/27 04:07:55;;;;;;;25.50;19.07;;;;;;;1.43;99.34;103214.75;5071890;28;20476;-43
2022/03/27 04:10:22;;;;;;;20.57;18.63;;;;;;;1.44;98.93;103215.56;5072032;28;20438;-46
2022/03/27 04:12:51;;;;;;;22.63;20.33;;;;;;;1.42;99.42;103207.78;5071869;28;20470;-45
2022/03/27 04:15:19;;;;;;;21.03;18.93;;;;;;;1.40;99.69;103206.16;5071497;28;20828;-43
2022/03/27 04:17:48;;;;;;;22.27;18.90;;;;;;;1.39;99.48;103207.06;5072071;28;21042;-43
2022/03/27 04:20:18;;;;;;;27.53;19.93;;;;;;;1.38;99.65;103218.50;5057401;28;20515;-44
2022/03/27 04:22:46;;;;;;;24.10;19.70;;;;;;;1.39;99.10;103214.97;5066550;28;20436;-43
2022/03/27 04:25:15;;;;;;;23.13;19.60;;;;;;;1.41;99.03;103216.56;5071320;28;20542;-46
2022/03/27 04:27:43;;;;;;;20.07;18.40;;;;;;;1.46;99.28;103216.38;5071907;28;20447;-45
2022/03/27 04:30:13;;;;;;;22.43;20.33;;;;;;;1.49;99.48;103218.84;5071752;28;20536;-45
2022/03/27 04:32:41;;;;;;;19.37;17.53;;;;;;;1.54;99.43;103220.31;5072181;28;20573;-45
2022/03/27 04:35:10;;;;;;;20.33;18.83;;;;;;;1.57;99.26;103219.28;5071263;28;20466;-43
2022/03/27 04:37:39;;;;;;;19.33;17.77;;;;;;;1.63;99.06;103204.06;5071575;28;20446;-45
2022/03/27 04:40:08;;;;;;;24.17;17.80;;;;;;;1.65;99.37;103211.84;5071806;28;20824;-45
2022/03/27 04:42:36;;;;;;;19.10;17.70;;;;;;;1.70;99.02;103199.34;5071707;28;20866;-43
2022/03/27 04:45:04;;;;;;;17.17;16.07;;;;;;;1.77;99.41;103199.84;5064219;28;20459;-44
2022/03/27 04:47:34;;;;;;;18.80;17.07;;;;;;;1.83;99.20;103202.16;5062323;28;20476;-43
2022/03/27 04:50:02;;;;;;;16.67;15.77;;;;;;;1.87;99.00;103199.28;5071671;28;20442;-45
2022/03/27 04:52:29;;;;;;;17.03;15.70;;;;;;;1.90;98.78;103203.53;5071654;28;20813;-45
2022/03/27 04:54:57;;;;;;;16.43;15.20;;;;;;;1.94;98.98;103182.22;5071089;28;20466;-45
2022/03/27 04:57:24;;;;;;;36.17;17.40;;;;;;;1.97;98.85;103192.59;5071499;28;20442;-46
2022/03/27 04:59:52;;;;;;;18.03;14.87;;;;;;;2.02;99.12;103189.72;5071380;28;20434;-43
2022/03/27 05:02:21;;;;;;;21.57;17.10;;;;;;;2.05;98.98;103200.09;5071124;28;20929;-44
2022/03/27 05:04:50;;;;;;;17.77;16.50;;;;;;;2.06;99.36;103192.09;5071009;28;20462;-48
2022/03/27 05:07:17;;;;;;;21.40;14.63;;;;;;;2.06;98.86;103193.91;5071573;28;20484;-45
2022/03/27 05:09:45;;;;;;;18.83;14.20;;;;;;;2.07;98.95;103185.06;5071506;28;20444;-45
2022/03/27 05:12:13;;;;;;;24.73;16.70;;;;;;;2.08;98.92;103184.13;5071291;28;20433;-47
2022/03/27 05:14:40;;;;;;;18.73;17.10;;;;;;;2.11;99.24;103191.88;5070711;28;20562;-43
2022/03/27 05:17:08;;;;;;;16.97;15.50;;;;;;;2.12;98.90;103196.22;5071190;28;20537;-45
2022/03/27 05:19:36;;;;;;;16.73;15.20;;;;;;;2.16;99.21;103197.72;5071329;28;20469;-43
2022/03/27 05:22:07;;;;;;;14.50;13.37;;;;;;;2.21;98.87;103193.91;5071034;28;20445;-43
2022/03/27 05:24:34;;;;;;;21.17;14.20;;;;;;;2.24;99.02;103193.75;5070838;28;20462;-46
2022/03/27 05:27:02;;;;;;;14.47;13.37;;;;;;;2.25;99.18;103194.59;5070999;28;20482;-45
2022/03/27 05:29:30;;;;;;;14.20;13.40;;;;;;;2.27;99.09;103194.53;5071446;28;20438;-44
2022/03/27 05:31:58;;;;;;;16.20;12.90;;;;;;;2.31;98.89;103196.91;5071121;28;20528;-47
2022/03/27 05:34:26;;;;;;;14.87;13.70;;;;;;;2.35;99.02;103197.59;5070604;28;20473;-43
2022/03/27 05:36:53;;;;;;;18.30;15.10;;;;;;;2.41;98.93;103202.53;5071034;28;20446;-45
2022/03/27 05:39:23;;;;;;;40.83;15.33;;;;;;;2.42;98.58;103201.59;5071204;28;20801;-43
2022/03/27 05:41:50;;;;;;;16.30;14.80;;;;;;;2.50;98.89;103208.13;5071148;28;20442;-50
2022/03/27 05:44:18;;;;;;;26.60;15.90;;;;;;;2.56;98.34;103205.16;5069769;28;20472;-47
2022/03/27 05:46:46;;;;;;;23.57;15.40;;;;;;;2.65;98.86;103203.81;5059045;28;20558;-45
2022/03/27 05:49:13;;;;;;;17.80;16.30;;;;;;;2.74;98.86;103201.50;5069387;28;20940;-46
2022/03/27 05:51:41;;;;;;;21.23;17.20;;;;;;;2.82;98.23;103208.97;5070827;28;20434;-45
2022/03/27 05:54:08;;;;;;;16.40;14.73;;;;;;;2.92;98.24;103212.78;5070510;28;20476;-46
2022/03/27 05:56:37;;;;;;;15.20;14.13;;;;;;;3.05;98.42;103211.13;5071114;28;20426;-47
2022/03/27 05:59:06;;;;;;;15.07;14.07;;;;;;;3.16;98.61;103223.72;5071141;28;20441;-49
2022/03/27 06:01:34;;;;;;;15.00;13.97;;;;;;;3.25;98.67;103212.66;5074221;28;20477;-44
2022/03/27 06:04:02;;;;;;;15.57;14.30;;;;;;;3.42;98.14;103214.28;5073864;28;20454;-46
2022/03/27 06:06:29;;;;;;;15.10;14.10;;;;;;;3.55;98.03;103210.00;5074176;28;20484;-45
2022/03/27 06:08:57;;;;;;;15.50;14.23;;;;;;;3.66;98.76;103215.47;5074269;28;20521;-46
2022/03/27 06:11:25;;;;;;;15.13;13.90;;;;;;;3.80;98.87;103213.69;5074166;28;20976;-43
2022/03/27 06:13:54;;;;;;;14.80;13.90;;;;;;;3.97;98.71;103217.13;5073795;28;20466;-43
2022/03/27 06:16:22;;;;;;;15.40;13.87;;;;;;;4.18;98.46;103213.16;5074139;28;20438;-45
2022/03/27 06:18:49;;;;;;;16.00;14.70;;;;;;;4.33;99.03;103202.47;5074334;28;20438;-47
2022/03/27 06:21:17;;;;;;;17.20;15.47;;;;;;;4.57;98.48;103194.78;5073757;28;20521;-47
2022/03/27 06:23:46;;;;;;;25.77;15.60;;;;;;;4.79;98.51;103200.38;5073868;28;20493;-45
2022/03/27 06:26:14;;;;;;;16.83;15.23;;;;;;;4.96;99.21;103209.84;5074024;28;20521;-45
2022/03/27 06:28:42;;;;;;;14.90;14.20;;;;;;;5.13;98.84;103212.25;5074236;28;20461;-47
2022/03/27 06:31:10;;;;;;;15.50;14.00;;;;;;;5.38;99.25;103206.16;5073703;28;20434;-48
2022/03/27 06:33:38;;;;;;;15.47;14.13;;;;;;;5.50;99.27;103207.97;5073276;28;20462;-43
2022/03/27 06:36:06;;;;;;;14.83;13.73;;;;;;;5.70;98.84;103202.22;5073769;28;20441;-45
2022/03/27 06:38:34;;;;;;;16.37;15.20;;;;;;;5.98;98.86;103201.16;5073869;28;20453;-45
2022/03/27 06:41:03;;;;;;;15.10;13.73;;;;;;;6.17;99.10;103198.06;5073770;28;20431;-46
2022/03/27 06:43:31;;;;;;;15.13;13.90;;;;;;;6.40;97.39;103202.56;5073256;28;21017;-44
2022/03/27 06:45:58;;;;;;;15.17;13.93;;;;;;;6.51;95.53;103200.03;5066813;28;20959;-45
2022/03/27 06:48:28;;;;;;;13.60;12.90;;;;;;;6.74;95.19;103201.00;5057000;28;20968;-45
2022/03/27 06:50:56;;;;;;;14.13;13.13;;;;;;;6.93;94.98;103190.75;5073634;28;20434;-47
2022/03/27 06:53:24;;;;;;;14.20;13.50;;;;;;;7.07;93.73;103183.44;5073177;28;20538;-46
2022/03/27 06:55:52;;;;;;;13.87;13.17;;;;;;;7.24;92.70;103190.13;5073745;28;20521;-45
2022/03/27 06:58:20;;;;;;;14.93;13.70;;;;;;;7.44;92.22;103191.25;5073239;28;20450;-43
2022/03/27 07:03:34;;;;;;;15.57;14.07;;;;;;;8.04;91.06;103198.97;5071698;28;20826;-45
2022/03/27 07:06:02;;;;;;;13.20;12.43;;;;;;;8.33;90.41;103190.41;5073107;28;20434;-43
2022/03/27 07:08:29;;;;;;;14.07;13.10;;;;;;;8.67;86.18;103191.19;5073097;28;20473;-43
2022/03/27 07:10:57;;;;;;;14.83;13.70;;;;;;;8.98;86.63;103194.00;5072442;28;20438;-46
2022/03/27 07:13:25;;;;;;;15.03;14.10;;;;;;;9.19;84.87;103198.41;5072479;28;20468;-46
2022/03/27 07:15:52;;;;;;;15.93;14.83;;;;;;;9.34;84.43;103194.47;5073266;28;20484;-46
2022/03/27 07:18:21;;;;;;;17.20;15.77;;;;;;;9.43;82.26;103195.50;5072565;28;20457;-46
2022/03/27 07:20:50;;;;;;;16.67;15.40;;;;;;;9.58;81.23;103190.69;5072666;28;20504;-47
2022/03/27 07:23:20;;;;;;;18.20;16.47;;;;;;;9.36;77.30;103192.50;5072343;28;20431;-44
2022/03/27 07:25:51;;;;;;;15.13;14.20;;;;;;;9.39;78.04;103194.91;5072674;28;20801;-46
2022/03/27 07:28:19;;;;;;;15.77;14.87;;;;;;;9.49;78.93;103188.81;5072884;28;20566;-46
2022/03/27 07:30:47;;;;;;;18.17;16.90;;;;;;;9.48;78.66;103195.09;5072831;28;20430;-45
2022/03/27 07:33:16;;;;;;;16.40;14.83;;;;;;;9.39;77.69;103188.75;5053799;28;20469;-44
2022/03/27 07:35:44;;;;;;;17.90;16.80;;;;;;;9.30;77.49;103194.84;5052738;28;20975;-45
2022/03/27 07:38:15;;;;;;;19.07;17.47;;;;;;;9.31;78.15;103202.72;5052223;28;20470;-44
2022/03/27 07:40:43;;;;;;;18.73;17.57;;;;;;;9.32;78.25;103198.22;5052545;28;20442;-46
2022/03/27 07:43:11;;;;;;;18.97;17.80;;;;;;;9.47;79.05;103193.44;5052026;28;20438;-47
2022/03/27 07:45:38;;;;;;;19.60;18.00;;;;;;;9.63;79.30;103191.13;5057235;28;20431;-43
2022/03/27 07:48:07;;;;;;;18.40;17.40;;;;;;;9.83;80.38;103193.78;5063719;28;20471;-46
2022/03/27 07:50:35;;;;;;;18.57;17.37;;;;;;;10.02;77.90;103182.38;5071904;28;20434;-48
2022/03/27 07:53:04;;;;;;;19.17;17.83;;;;;;;10.37;80.34;103181.97;5071709;28;20879;-43
2022/03/27 07:55:34;;;;;;;19.43;18.23;;;;;;;10.67;79.17;103184.56;5072287;28;20738;-46
2022/03/27 07:58:02;;;;;;;17.50;16.37;;;;;;;10.94;77.45;103183.88;5072359;28;20450;-45
2022/03/27 08:00:30;;;;;;;21.10;19.50;;;;;;;11.03;73.90;103177.72;5071635;28;20459;-46
2022/03/27 08:02:58;;;;;;;20.77;18.63;;;;;;;11.23;74.87;103186.59;5072285;28;20418;-44
2022/03/27 08:05:27;;;;;;;20.30;18.47;;;;;;;11.34;74.66;103175.75;5071499;28;20450;-45
2022/03/27 08:07:55;;;;;;;19.13;17.80;;;;;;;11.20;71.61;103179.66;5071661;28;20480;-48
2022/03/27 08:10:23;;;;;;;17.80;16.50;;;;;;;11.15;71.26;103175.75;5071443;28;20444;-46
2022/03/27 08:12:52;;;;;;;19.43;18.10;;;;;;;11.05;70.79;103179.25;5072105;28;20465;-47
2022/03/27 08:15:20;;;;;;;19.90;18.20;;;;;;;11.00;70.93;103180.66;5071203;28;21000;-46
2022/03/27 08:17:51;;;;;;;20.00;18.50;;;;;;;10.87;70.47;103172.91;5071806;28;20473;-45
2022/03/27 08:20:19;;;;;;;19.77;18.67;;;;;;;10.80;71.19;103176.31;5071682;28;20530;-45
2022/03/27 08:22:47;;;;;;;20.03;18.43;;;;;;;10.72;71.21;103176.16;5070997;28;20506;-47
2022/03/27 08:26:55;;;;;;;19.53;17.93;;;;;;;10.68;72.00;103182.75;5071402;28;20493;-46
2022/03/27 08:28:03;;;;;;;20.20;18.73;;;;;;;10.61;72.47;103176.25;5058272;28;20471;-47
2022/03/27 08:30:31;;;;;;;18.70;17.40;;;;;;;10.55;72.22;103175.84;5040866;28;20527;-43
2022/03/27 08:32:59;;;;;;;19.37;18.00;;;;;;;10.60;72.74;103177.25;5049982;28;20799;-45
2022/03/27 08:35:26;;;;;;;18.63;17.43;;;;;;;10.66;72.91;103171.38;5050672;28;20539;-47
2022/03/27 08:37:54;;;;;;;20.10;18.90;;;;;;;10.69;72.95;103173.75;5051139;28;21015;-44
2022/03/27 08:40:22;;;;;;;19.30;18.23;;;;;;;10.76;72.69;103169.53;5050739;28;20538;-45
2022/03/27 08:42:50;;;;;;;21.93;20.27;;;;;;;10.69;71.52;103155.09;5050887;28;20431;-48
2022/03/27 08:45:19;;;;;;;19.90;18.40;;;;;;;10.70;71.31;103162.94;5045436;28;21034;-46
2022/03/27 08:47:47;;;;;;;20.63;19.00;;;;;;;10.80;71.98;103161.13;5053843;28;20974;-45
2022/03/27 08:50:29;;;;;;;19.47;18.00;;;;;;;10.93;71.92;103168.88;5051269;28;20446;-48
2022/03/27 08:52:59;;;;;;;19.07;17.77;;;;;;;11.14;72.15;103163.38;5051548;28;20500;-47
2022/03/27 08:55:38;;;;;;;22.37;19.83;;;;;;;11.18;70.82;103168.28;5050921;28;21074;-43
2022/03/27 08:58:08;;;;;;;19.93;18.40;;;;;;;11.18;70.84;103162.94;5044445;28;20452;-45
2022/03/27 09:00:37;;;;;;;21.67;19.87;;;;;;;11.38;71.90;103161.94;5031468;28;20432;-44
2022/03/27 09:03:06;;;;;;;20.03;18.03;;;;;;;11.55;71.14;103158.56;5032171;28;20450;-45
2022/03/27 09:05:35;;;;;;;20.33;18.33;;;;;;;11.75;71.45;103164.69;5036448;28;20463;-45
2022/03/27 09:08:07;;;;;;;19.33;17.83;;;;;;;11.84;70.83;103162.97;5033403;28;20483;-47
2022/03/27 09:10:34;;;;;;;20.60;18.50;;;;;;;11.96;70.22;103164.50;5041669;28;20519;-43
2022/03/27 09:13:03;;;;;;;21.10;19.17;;;;;;;12.13;70.62;103159.19;5039692;28;20522;-45
2022/03/27 09:15:31;;;;;;;31.50;19.40;;;;;;;12.25;69.74;103159.84;5043817;28;21194;-44
2022/03/27 09:18:05;;;;;;;21.10;18.87;;;;;;;12.33;69.42;103159.13;5036001;28;20452;-43
2022/03/27 09:20:35;;;;;;;20.67;18.67;;;;;;;12.50;70.34;103147.59;5036018;28;21013;-44
2022/03/27 09:23:15;;;;;;;21.70;19.27;;;;;;;12.50;69.03;103143.09;5036378;28;20443;-45
2022/03/27 09:25:44;;;;;;;21.53;19.60;;;;;;;12.62;68.90;103141.88;5053442;28;20432;-45
2022/03/27 09:28:12;;;;;;;21.60;18.73;;;;;;;12.65;66.36;103149.59;5063721;28;20476;-47
2022/03/27 09:30:40;;;;;;;25.53;20.53;;;;;;;12.64;67.41;103155.94;5040196;28;20863;-45
2022/03/27 09:33:09;;;;;;;23.17;19.87;;;;;;;12.80;67.95;103149.06;5033698;28;21009;-46
2022/03/27 09:35:37;;;;;;;20.80;18.67;;;;;;;12.84;67.05;103147.78;5045689;28;20435;-46
2022/03/27 09:38:13;;;;;;;24.17;19.30;;;;;;;12.87;66.25;103145.66;5048054;28;20443;-47
2022/03/27 09:40:41;;;;;;;22.43;20.40;;;;;;;12.61;66.98;103142.84;5044677;28;20448;-45
2022/03/27 09:43:11;;;;;;;19.93;18.03;;;;;;;12.73;65.39;103143.47;5042587;28;20523;-50
2022/03/27 09:45:39;;;;;;;26.37;17.90;;;;;;;12.82;64.27;103144.38;5045136;28;20440;-46
2022/03/27 09:48:10;;;;;;;19.30;17.70;;;;;;;12.89;63.89;103138.28;5041376;28;20495;-45
2022/03/27 09:50:39;;;;;;;21.17;19.27;;;;;;;12.95;62.94;103148.38;5039897;28;20516;-44
2022/03/27 09:53:31;;;;;;;20.97;18.83;;;;;;;12.82;61.86;103147.06;5060397;28;20431;-46
2022/03/27 09:56:15;;;;;;;22.70;20.90;;;;;;;12.97;63.98;103143.69;5059910;28;20529;-47
2022/03/27 09:58:44;;;;;;;20.63;19.10;;;;;;;13.10;62.89;103148.72;5074615;28;20434;-48
2022/03/27 10:01:13;;;;;;;18.20;16.77;;;;;;;13.42;62.64;103143.59;5074378;28;20480;-43
2022/03/27 10:03:59;;;;;;;17.17;15.53;;;;;;;13.57;60.66;103142.03;5073905;28;20806;-49
2022/03/27 10:06:29;;;;;;;15.70;14.77;;;;;;;13.75;60.87;103148.16;5074256;28;20505;-46
2022/03/27 10:08:57;;;;;;;17.37;12.80;;;;;;;13.83;59.77;103137.47;5069987;28;20480;-46
2022/03/27 10:11:26;;;;;;;14.53;10.70;;;;;;;14.01;58.16;103132.03;5053453;28;20845;-44
2022/03/27 10:13:54;;;;;;;13.07;9.97;;;;;;;14.05;56.93;103125.34;5069312;28;20584;-45
2022/03/27 10:16:26;;;;;;;11.57;10.07;;;;;;;14.33;58.51;103121.47;5074394;28;20448;-45
2022/03/27 10:18:58;;;;;;;12.17;9.57;;;;;;;14.54;58.34;103115.63;5074105;28;20534;-49
2022/03/27 10:21:27;;;;;;;13.93;9.90;;;;;;;14.49;56.79;103115.25;5074201;28;20438;-46
2022/03/27 10:24:09;;;;;;;11.80;8.70;;;;;;;14.59;56.76;103115.13;5073800;28;20490;-43
2022/03/27 10:26:38;;;;;;;13.23;8.37;;;;;;;14.71;55.67;103113.78;5073954;28;20465;-45
2022/03/27 10:29:07;;;;;;;11.63;7.40;;;;;;;14.66;53.16;103106.25;5073772;28;20474;-46
2022/03/27 10:31:35;;;;;;;12.47;6.97;;;;;;;14.70;51.04;103115.63;5072414;28;20549;-44
2022/03/27 10:34:06;;;;;;;10.30;7.30;;;;;;;14.76;50.03;103114.13;5073531;28;20817;-44
2022/03/27 10:36:43;;;;;;;9.73;7.00;;;;;;;14.85;51.87;103108.59;5074117;28;20430;-46
2022/03/27 10:39:16;;;;;;;9.40;6.63;;;;;;;15.06;51.63;103108.09;5073870;28;20438;-50
2022/03/27 10:41:52;;;;;;;12.37;7.43;;;;;;;14.87;52.10;103111.94;5073338;28;20434;-46
2022/03/27 10:44:27;;;;;;;11.80;7.73;;;;;;;15.15;53.88;103106.25;5072113;28;20464;-48
2022/03/27 10:47:22;;;;;;;10.03;8.40;;;;;;;15.27;53.13;103105.72;5060550;28;20462;-46
2022/03/27 10:50:29;;;;;;;15.90;9.20;;;;;;;15.21;52.52;103106.41;4988039;28;20825;-44
2022/03/27 10:53:10;;;;;;;14.00;7.30;;;;;;;15.30;50.17;103108.06;5028920;28;21234;-46
2022/03/27 10:55:42;;;;;;;13.17;6.60;;;;;;;15.37;51.27;103089.41;5033425;28;20530;-44
2022/03/27 10:58:28;;;;;;;11.33;7.10;;;;;;;15.47;48.29;103096.31;5033313;28;20506;-47
2022/03/27 11:00:57;;;;;;;8.93;6.33;;;;;;;15.49;49.43;103096.16;5032258;28;20432;-48
2022/03/27 11:03:51;;;;;;;14.17;6.67;;;;;;;15.49;47.11;103097.00;5033122;28;20538;-46
2022/03/27 11:06:24;;;;;;;6.87;6.17;;;;;;;15.67;48.29;103102.16;5019229;28;20472;-46
2022/03/27 11:08:54;;;;;;;10.47;6.90;;;;;;;15.71;47.91;103098.06;5032922;28;20446;-46
2022/03/27 11:12:01;;;;;;;14.63;8.03;;;;;;;15.75;46.04;103104.81;5040315;28;20441;-49
2022/03/27 11:15:07;;;;;;;10.57;6.70;;;;;;;15.93;48.90;103099.19;5044173;28;20519;-46
2022/03/27 11:17:52;;;;;;;9.23;6.70;;;;;;;16.00;49.08;103097.47;5038182;28;20483;-46
2022/03/27 11:20:56;;;;;;;7.30;6.47;;;;;;;15.97;45.20;103087.06;5045761;28;20446;-51
2022/03/27 11:23:26;;;;;;;9.00;6.87;;;;;;;16.04;48.12;103094.25;5047360;28;20481;-46
2022/03/27 11:25:55;;;;;;;15.87;6.77;;;;;;;15.85;47.65;103089.31;5038811;28;20528;-50
2022/03/27 11:28:23;;;;;;;10.43;7.13;;;;;;;15.82;48.44;103091.50;5041555;28;20456;-47
2022/03/27 11:31:26;;;;;;;12.37;7.23;;;;;;;15.89;47.86;103089.78;5055283;28;20531;-46
2022/03/27 11:34:19;;;;;;;16.93;6.57;;;;;;;15.61;47.63;103088.53;5032502;28;20526;-46
2022/03/27 11:37:09;;;;;;;10.63;6.43;;;;;;;15.50;49.58;103082.50;5032808;28;20498;-43